createdAt,value
2018-04-17T00:00:43.759Z,8.33
2018-04-17T00:03:13.344Z,8.83
2018-04-17T00:05:42.926Z,8.63
2018-04-17T00:08:12.558Z,8.40
2018-04-17T00:10:42.134Z,9.97
2018-04-17T00:13:11.700Z,8.27
2018-04-17T00:15:41.070Z,10.50
2018-04-17T00:18:11.045Z,10.47
2018-04-17T00:20:40.619Z,10.80
2018-04-17T00:23:10.196Z,10.57
2018-04-17T00:25:40.186Z,11.83
2018-04-17T00:28:09.763Z,10.63
2018-04-17T00:30:39.347Z,10.77
2018-04-17T00:33:08.929Z,11.90
2018-04-17T00:35:38.703Z,12.97
2018-04-17T00:38:08.282Z,11.40
2018-04-17T00:40:37.863Z,11.97
2018-04-17T00:43:07.843Z,13.07
2018-04-17T00:45:37.453Z,14.73
2018-04-17T00:48:07.032Z,14.40
2018-04-17T00:50:36.610Z,15.73
2018-04-17T00:53:22.805Z,17.57
2018-04-17T00:55:52.779Z,17.97
2018-04-17T00:58:22.381Z,18.00
2018-04-17T01:00:51.709Z,15.97
2018-04-17T01:03:21.285Z,15.50
2018-04-17T01:05:50.863Z,14.90
2018-04-17T01:08:20.437Z,13.70
2018-04-17T01:10:50.417Z,12.20
2018-04-17T01:13:20.004Z,12.53
2018-04-17T01:15:49.608Z,12.70
2018-04-17T01:18:19.195Z,12.10
2018-04-17T01:20:48.773Z,13.27
2018-04-17T01:23:18.353Z,13.20
2018-04-17T01:25:47.937Z,10.77
2018-04-17T01:28:17.515Z,11.30
2018-04-17T01:30:47.511Z,10.73
2018-04-17T01:33:17.091Z,10.40
2018-04-17T01:35:46.682Z,11.30
2018-04-17T01:38:16.892Z,13.13
2018-04-17T01:40:46.478Z,14.63
2018-04-17T01:43:16.455Z,14.57
2018-04-17T01:45:46.052Z,11.97
2018-04-17T01:48:15.640Z,11.53
2018-04-17T01:50:45.250Z,12.00
2018-04-17T01:53:14.835Z,13.10
2018-04-17T01:55:44.418Z,14.37
2018-04-17T01:58:14.406Z,12.93
2018-04-17T02:00:43.991Z,14.23
2018-04-17T02:03:13.580Z,14.73
2018-04-17T02:05:42.826Z,15.03
2018-04-17T02:08:12.411Z,12.23
2018-04-17T02:10:41.997Z,12.33
2018-04-17T02:13:11.588Z,11.80
2018-04-17T02:15:41.555Z,10.53
2018-04-17T02:18:11.142Z,10.67
2018-04-17T02:20:40.481Z,10.87
2018-04-17T02:23:10.057Z,10.63
2018-04-17T02:25:39.638Z,10.90
2018-04-17T02:28:09.216Z,11.20
2018-04-17T02:30:38.798Z,16.33
2018-04-17T02:33:08.386Z,11.87
2018-04-17T02:35:37.973Z,13.70
2018-04-17T02:38:07.549Z,13.77
2018-04-17T02:40:37.130Z,19.90
2018-04-17T02:43:06.714Z,29.23
2018-04-17T02:45:36.309Z,39.63
2018-04-17T02:48:05.896Z,22.07
2018-04-17T02:50:35.655Z,33.40
2018-04-17T02:53:05.254Z,67.00
2018-04-17T02:55:34.832Z,33.23
2018-04-17T02:58:04.411Z,33.27
2018-04-17T03:00:33.994Z,33.53
2018-04-17T03:03:03.579Z,27.90
2018-04-17T03:05:33.186Z,41.77
2018-04-17T03:08:02.765Z,78.83
2018-04-17T03:10:32.352Z,78.37
2018-04-17T03:13:01.934Z,116.33
2018-04-17T03:15:31.526Z,97.03
2018-04-17T03:18:01.158Z,180.10
2018-04-17T03:20:31.154Z,116.00
2018-04-17T03:23:00.744Z,120.50
2018-04-17T03:25:30.330Z,100.43
2018-04-17T03:27:59.683Z,230.80
2018-04-17T03:30:29.033Z,241.63
2018-04-17T03:32:58.395Z,265.10
2018-04-17T03:35:27.986Z,126.30
2018-04-17T03:37:57.589Z,217.47
2018-04-17T03:40:27.164Z,106.33
2018-04-17T03:42:56.756Z,31.50
2018-04-17T03:45:26.732Z,17.20
2018-04-17T03:47:56.328Z,41.83
2018-04-17T03:50:25.927Z,58.57
2018-04-17T03:52:55.509Z,71.27
2018-04-17T03:55:25.102Z,21.80
2018-04-17T03:57:55.084Z,29.10
2018-04-17T04:00:24.654Z,30.50
2018-04-17T04:02:54.460Z,15.97
2018-04-17T04:05:24.050Z,33.17
2018-04-17T04:07:54.018Z,59.20
2018-04-17T04:10:23.600Z,34.83
2018-04-17T04:12:53.188Z,89.17
2018-04-17T04:15:22.786Z,30.23
2018-04-17T04:18:09.413Z,73.70
2018-04-17T04:20:55.936Z,129.60
2018-04-17T04:26:36.579Z,75.97
2018-04-17T04:29:06.558Z,183.77
2018-04-17T04:31:36.200Z,54.00
2018-04-17T04:34:06.543Z,127.53
2018-04-17T04:36:36.153Z,105.37
2018-04-17T04:39:04.842Z,97.70
2018-04-17T04:41:34.458Z,239.77
2018-04-17T04:44:04.043Z,196.67
2018-04-17T04:46:34.021Z,219.27
2018-04-17T04:49:03.607Z,223.53
2018-04-17T04:51:33.181Z,240.20
2018-04-17T04:54:03.168Z,291.93
2018-04-17T04:56:32.760Z,228.37
2018-04-17T04:59:02.346Z,172.47
2018-04-17T05:01:31.939Z,178.60
2018-04-17T05:04:01.565Z,141.23
2018-04-17T05:06:31.171Z,237.20
2018-04-17T05:09:00.769Z,213.77
2018-04-17T05:11:30.373Z,130.80
2018-04-17T05:13:59.733Z,96.63
2018-04-17T05:16:28.992Z,103.20
2018-04-17T05:18:58.501Z,93.27
2018-04-17T05:21:28.013Z,126.87
2018-04-17T05:23:57.551Z,125.03
2018-04-17T05:26:27.235Z,137.60
2018-04-17T05:28:56.736Z,128.10
2018-04-17T05:31:26.250Z,123.33
2018-04-17T05:33:55.770Z,132.33
2018-04-17T05:36:25.288Z,75.73
2018-04-17T05:38:54.824Z,76.00
2018-04-17T05:41:24.344Z,87.27
2018-04-17T05:43:53.858Z,108.93
2018-04-17T05:46:23.361Z,42.17
2018-04-17T05:48:52.932Z,35.63
2018-04-17T05:51:22.832Z,42.60
2018-04-17T05:53:52.922Z,45.07
2018-04-17T05:56:22.438Z,64.77
2018-04-17T05:58:51.718Z,35.47
2018-04-17T06:01:20.999Z,47.67
2018-04-17T06:03:50.518Z,37.03
2018-04-17T06:06:20.039Z,49.83
2018-04-17T06:08:49.552Z,69.13
2018-04-17T06:11:19.054Z,39.30
2018-04-17T06:13:48.606Z,43.57
2018-04-17T06:16:18.118Z,78.80
2018-04-17T06:18:47.647Z,109.10
2018-04-17T06:21:17.156Z,76.57
2018-04-17T06:23:46.704Z,44.10
2018-04-17T06:26:16.225Z,44.10
2018-04-17T06:28:46.128Z,47.73
2018-04-17T06:31:16.050Z,48.93
2018-04-17T06:33:45.943Z,72.27
2018-04-17T06:36:15.448Z,81.73
2018-04-17T06:38:44.958Z,52.93
2018-04-17T06:41:14.467Z,32.33
2018-04-17T06:43:43.755Z,212.30
2018-04-17T06:46:13.260Z,63.17
2018-04-17T06:48:42.765Z,34.13
2018-04-17T06:51:12.288Z,77.90
2018-04-17T06:53:41.997Z,467.63
2018-04-17T06:56:11.499Z,70.70
2018-04-17T06:58:41.010Z,51.77
2018-04-17T07:01:10.514Z,42.27
2018-04-17T07:03:40.019Z,29.90
2018-04-17T07:06:09.528Z,62.40
2018-04-17T07:08:39.024Z,32.23
2018-04-17T07:11:08.527Z,68.23
2018-04-17T07:13:38.064Z,24.17
2018-04-17T07:16:07.992Z,22.60
2018-04-17T07:18:37.495Z,28.33
2018-04-17T07:21:06.668Z,35.17
2018-04-17T07:23:36.603Z,51.77
2018-04-17T07:26:06.286Z,83.60
2018-04-17T07:28:35.803Z,367.00
2018-04-17T07:31:05.720Z,33.03
2018-04-17T07:33:35.619Z,43.00
2018-04-17T07:36:05.176Z,38.83
2018-04-17T07:38:34.688Z,44.10
2018-04-17T07:41:03.970Z,41.37
2018-04-17T07:43:33.475Z,30.90
2018-04-17T07:46:03.010Z,28.93
2018-04-17T07:48:46.505Z,32.47
2018-04-17T07:51:16.419Z,27.00
2018-04-17T07:53:46.324Z,34.57
2018-04-17T07:56:16.021Z,51.00
2018-04-17T07:58:45.518Z,33.10
2018-04-17T08:01:15.033Z,30.33
2018-04-17T08:03:44.541Z,28.40
2018-04-17T08:06:14.044Z,57.67
2018-04-17T08:08:43.545Z,28.73
2018-04-17T08:11:13.051Z,31.10
2018-04-17T08:13:42.564Z,30.77
2018-04-17T08:16:12.070Z,28.60
2018-04-17T08:18:41.576Z,27.87
2018-04-17T08:21:11.084Z,39.97
2018-04-17T08:23:40.604Z,39.47
2018-04-17T08:26:10.498Z,35.10
2018-04-17T08:28:40.014Z,26.23
2018-04-17T08:31:09.924Z,26.80
2018-04-17T08:33:39.635Z,27.47
2018-04-17T08:36:09.144Z,28.23
2018-04-17T08:38:38.645Z,28.27
2018-04-17T08:41:08.141Z,27.20
2018-04-17T08:43:37.841Z,25.50
2018-04-17T08:46:07.336Z,25.87
2018-04-17T08:48:36.850Z,25.23
2018-04-17T08:51:06.556Z,25.13
2018-04-17T08:53:36.070Z,25.70
2018-04-17T08:56:05.575Z,27.57
2018-04-17T08:58:35.086Z,28.30
2018-04-17T09:01:04.612Z,27.07
2018-04-17T09:03:34.526Z,28.73
2018-04-17T09:06:04.420Z,25.77
2018-04-17T09:08:33.922Z,26.40
2018-04-17T09:11:03.451Z,26.40
2018-04-17T09:13:33.348Z,27.50
2018-04-17T09:16:02.862Z,26.33
2018-04-17T09:18:32.794Z,25.80
2018-04-17T09:21:02.705Z,25.13
2018-04-17T09:23:32.609Z,21.87
2018-04-17T09:26:02.131Z,22.03
2018-04-17T09:28:32.083Z,20.07
2018-04-17T09:31:01.586Z,19.13
2018-04-17T09:33:31.099Z,21.43
2018-04-17T09:36:00.619Z,14.10
2018-04-17T09:38:30.307Z,12.30
2018-04-17T09:40:59.824Z,12.43
2018-04-17T09:43:29.325Z,13.73
2018-04-17T09:45:58.832Z,14.37
2018-04-17T09:48:28.342Z,14.07
2018-04-17T09:50:57.854Z,13.77
2018-04-17T09:53:27.132Z,13.17
2018-04-17T09:55:56.628Z,13.97
2018-04-17T09:58:26.134Z,14.80
2018-04-17T10:00:59.534Z,14.63
2018-04-17T10:03:29.046Z,12.20
2018-04-17T10:05:58.562Z,13.87
2018-04-17T10:08:28.073Z,12.73
2018-04-17T10:10:57.634Z,12.63
2018-04-17T10:13:27.552Z,15.03
2018-04-17T10:15:57.462Z,13.77
2018-04-17T10:18:27.358Z,12.73
2018-04-17T10:20:56.884Z,12.40
2018-04-17T10:23:26.899Z,11.77
2018-04-17T10:25:56.822Z,12.03
2018-04-17T10:28:26.726Z,12.67
2018-04-17T10:30:56.675Z,11.37
2018-04-17T10:33:26.170Z,10.83
2018-04-17T10:35:55.674Z,9.90
2018-04-17T10:38:25.169Z,11.70
2018-04-17T10:40:55.085Z,11.93
2018-04-17T10:43:25.016Z,12.07
2018-04-17T10:45:54.525Z,11.03
2018-04-17T10:48:24.027Z,10.63
2018-04-17T10:50:53.727Z,9.50
2018-04-17T10:53:23.631Z,9.80
2018-04-17T10:55:53.517Z,11.27
2018-04-17T10:58:23.006Z,9.73
2018-04-17T11:00:52.520Z,9.60
2018-04-17T11:03:22.045Z,9.33
2018-04-17T11:05:51.736Z,9.67
2018-04-17T11:08:21.477Z,8.83
2018-04-17T11:10:51.026Z,9.13
2018-04-17T11:13:20.531Z,7.20
2018-04-17T11:15:50.056Z,8.57
2018-04-17T11:18:19.556Z,8.73
2018-04-17T11:20:49.057Z,8.07
2018-04-17T11:23:18.556Z,7.17
2018-04-17T11:25:48.054Z,9.30
2018-04-17T11:28:17.562Z,7.70
2018-04-17T11:30:47.066Z,7.70
2018-04-17T11:33:16.579Z,7.13
2018-04-17T11:35:46.974Z,8.13
2018-04-17T11:38:16.864Z,7.43
2018-04-17T11:40:46.370Z,11.70
2018-04-17T11:43:15.641Z,5.27
2018-04-17T11:45:45.145Z,7.67
2018-04-17T11:48:14.628Z,5.40
2018-04-17T11:50:44.157Z,7.37
2018-04-17T11:53:13.648Z,6.23
2018-04-17T11:55:43.146Z,5.50
2018-04-17T11:58:12.633Z,6.13
2018-04-17T12:00:42.138Z,4.73
2018-04-17T12:03:12.052Z,8.23
2018-04-17T12:05:42.111Z,4.35
2018-04-17T12:08:11.600Z,3.80
2018-04-17T12:10:40.867Z,4.73
2018-04-17T12:13:10.535Z,5.37
2018-04-17T12:15:40.073Z,5.47
2018-04-17T12:18:09.574Z,2.93
2018-04-17T12:20:39.173Z,4.03
2018-04-17T12:23:09.224Z,3.87
2018-04-17T12:25:38.726Z,8.85
2018-04-17T12:28:08.795Z,4.30
2018-04-17T12:30:39.237Z,3.95
2018-04-17T12:33:08.729Z,3.00
2018-04-17T12:35:39.213Z,4.37
2018-04-17T12:38:09.261Z,3.30
2018-04-17T12:40:39.324Z,4.55
2018-04-17T12:43:09.387Z,3.15
2018-04-17T12:45:39.483Z,3.37
2018-04-17T12:48:09.538Z,3.95
2018-04-17T12:50:39.588Z,3.12
2018-04-17T12:53:09.642Z,3.30
2018-04-17T12:55:39.704Z,4.05
2018-04-17T12:58:10.338Z,4.60
2018-04-17T13:00:40.800Z,2.35
2018-04-17T13:03:11.058Z,4.22
2018-04-17T13:05:41.115Z,3.53
2018-04-17T13:08:11.174Z,3.62
2018-04-17T13:10:41.232Z,4.93
2018-04-17T13:13:11.278Z,4.85
2018-04-17T13:15:41.385Z,8.57
2018-04-17T13:18:11.600Z,3.67
2018-04-17T13:20:42.251Z,4.05
2018-04-17T13:23:12.698Z,4.37
2018-04-17T13:25:42.765Z,3.22
2018-04-17T13:28:12.811Z,2.58
2018-04-17T13:30:43.254Z,5.05
2018-04-17T13:33:13.289Z,3.05
2018-04-17T13:35:43.343Z,3.83
2018-04-17T13:38:13.409Z,3.35
2018-04-17T13:40:43.457Z,1.73
2018-04-17T13:43:13.514Z,3.12
2018-04-17T13:45:43.561Z,3.45
2018-04-17T13:48:13.609Z,4.12
2018-04-17T13:50:43.663Z,3.92
2018-04-17T13:53:13.719Z,2.53
2018-04-17T13:55:43.783Z,2.87
2018-04-17T13:58:13.825Z,2.92
2018-04-17T14:00:43.874Z,3.05
2018-04-17T14:03:13.928Z,3.15
2018-04-17T14:05:43.991Z,4.85
2018-04-17T14:08:14.438Z,2.30
2018-04-17T14:10:44.724Z,3.67
2018-04-17T14:13:14.781Z,3.97
2018-04-17T14:15:45.474Z,4.68
2018-04-17T14:18:15.513Z,5.50
2018-04-17T14:20:46.065Z,3.65
2018-04-17T14:23:16.139Z,2.33
2018-04-17T14:25:46.209Z,4.50
2018-04-17T14:28:16.270Z,2.37
2018-04-17T14:30:46.314Z,2.65
2018-04-17T14:33:16.781Z,4.78
2018-04-17T14:35:46.529Z,4.22
2018-04-17T14:38:16.574Z,4.35
2018-04-17T14:40:47.034Z,2.37
2018-04-17T14:43:17.668Z,2.83
2018-04-17T14:45:47.745Z,5.22
2018-04-17T14:48:18.193Z,2.53
2018-04-17T14:50:48.007Z,3.53
2018-04-17T14:53:18.045Z,2.95
2018-04-17T14:55:48.119Z,3.05
2018-04-17T14:58:18.559Z,3.20
2018-04-17T15:00:49.005Z,1.85
2018-04-17T15:03:19.069Z,4.20
2018-04-17T15:05:49.163Z,2.50
2018-04-17T15:08:19.231Z,2.22
2018-04-17T15:10:49.312Z,3.03
2018-04-17T15:13:19.364Z,2.53
2018-04-17T15:15:49.427Z,1.60
2018-04-17T15:18:19.485Z,3.17
2018-04-17T15:20:49.551Z,3.00
2018-04-17T15:23:19.798Z,2.87
2018-04-17T15:25:49.867Z,3.42
2018-04-17T15:28:20.317Z,3.85
2018-04-17T15:30:50.373Z,3.67
2018-04-17T15:33:20.432Z,3.45
2018-04-17T15:35:50.879Z,2.70
2018-04-17T15:38:20.981Z,2.97
2018-04-17T15:40:51.197Z,2.85
2018-04-17T15:43:21.251Z,5.55
2018-04-17T15:45:51.331Z,5.25
2018-04-17T15:48:21.072Z,1.77
2018-04-17T15:50:51.357Z,3.75
2018-04-17T15:53:21.169Z,3.35
2018-04-17T15:55:51.279Z,4.25
2018-04-17T15:58:21.332Z,3.20
2018-04-17T16:00:51.791Z,5.00
2018-04-17T16:03:21.879Z,3.90
2018-04-17T16:05:52.125Z,2.75
2018-04-17T16:08:22.191Z,4.10
2018-04-17T16:10:52.263Z,3.28
2018-04-17T16:13:22.332Z,6.55
2018-04-17T16:15:52.389Z,5.50
2018-04-17T16:18:22.451Z,4.03
2018-04-17T16:20:52.508Z,3.87
2018-04-17T16:23:22.885Z,18.50
2018-04-17T16:25:52.942Z,4.87
2018-04-17T16:28:23.011Z,3.05
2018-04-17T16:30:53.078Z,3.83
2018-04-17T16:33:23.157Z,6.40
2018-04-17T16:35:53.219Z,3.12
2018-04-17T16:38:23.280Z,4.37
2018-04-17T16:40:53.124Z,4.62
2018-04-17T16:43:23.178Z,2.47
2018-04-17T16:45:52.678Z,5.45
2018-04-17T16:48:22.744Z,4.75
2018-04-17T16:50:52.808Z,2.47
2018-04-17T16:53:22.880Z,3.70
2018-04-17T16:55:52.945Z,5.78
2018-04-17T16:58:23.024Z,1.90
2018-04-17T17:00:52.912Z,3.22
2018-04-17T17:03:22.973Z,6.37
2018-04-17T17:05:53.029Z,4.55
2018-04-17T17:08:22.530Z,2.93
2018-04-17T17:10:51.802Z,5.07
2018-04-17T17:13:21.856Z,2.35
2018-04-17T17:15:51.383Z,2.93
2018-04-17T17:18:20.887Z,2.73
2018-04-17T17:20:50.396Z,4.10
2018-04-17T17:23:19.895Z,4.23
2018-04-17T17:25:49.405Z,11.90
2018-04-17T17:28:18.920Z,12.00
2018-04-17T17:30:49.004Z,11.82
2018-04-17T17:33:19.476Z,21.60
2018-04-17T17:35:49.390Z,9.40
2018-04-17T17:38:18.945Z,11.67
2018-04-17T17:40:48.623Z,3.43
2018-04-17T17:43:18.294Z,4.60
2018-04-17T17:45:47.782Z,5.13
2018-04-17T17:48:17.277Z,2.13
2018-04-17T17:50:46.778Z,4.27
2018-04-17T17:53:16.270Z,4.50
2018-04-17T17:55:45.792Z,3.83
2018-04-17T17:58:15.298Z,4.40
2018-04-17T18:00:44.564Z,4.27
2018-04-17T18:03:14.468Z,2.83
2018-04-17T18:05:44.174Z,2.57
2018-04-17T18:08:13.670Z,3.13
2018-04-17T18:10:43.171Z,3.00
2018-04-17T18:13:12.712Z,3.27
2018-04-17T18:15:42.376Z,3.77
2018-04-17T18:18:11.661Z,4.57
2018-04-17T18:20:41.176Z,2.53
2018-04-17T18:23:10.678Z,3.20
2018-04-17T18:25:40.177Z,8.67
2018-04-17T18:28:09.702Z,3.00
2018-04-17T18:30:39.014Z,2.27
2018-04-17T18:33:08.516Z,2.53
2018-04-17T18:35:38.011Z,3.20
2018-04-17T18:38:07.293Z,2.13
2018-04-17T18:40:36.811Z,5.27
2018-04-17T18:43:06.318Z,3.57
2018-04-17T18:45:35.829Z,3.80
2018-04-17T18:48:05.333Z,4.07
2018-04-17T18:50:34.842Z,3.07
2018-04-17T18:53:04.352Z,3.37
2018-04-17T18:55:33.853Z,3.63
2018-04-17T18:58:03.355Z,3.60
2018-04-17T19:00:32.851Z,3.40
2018-04-17T19:03:02.351Z,2.70
2018-04-17T19:05:31.853Z,2.30
2018-04-17T19:08:01.365Z,4.23
2018-04-17T19:10:30.653Z,3.30
2018-04-17T19:13:00.187Z,2.63
2018-04-17T19:15:29.700Z,6.43
2018-04-17T19:17:59.200Z,2.73
2018-04-17T19:20:28.698Z,3.70
2018-04-17T19:22:58.198Z,3.17
2018-04-17T19:25:27.717Z,4.77
2018-04-17T19:27:57.231Z,6.77
2018-04-17T19:30:26.520Z,3.57
2018-04-17T19:32:55.837Z,5.20
2018-04-17T19:35:25.506Z,5.93
2018-04-17T19:37:55.029Z,3.17
2018-04-17T19:40:24.598Z,5.33
2018-04-17T19:42:53.914Z,4.63
2018-04-17T19:45:23.517Z,4.20
2018-04-17T19:47:53.173Z,3.10
2018-04-17T19:50:22.670Z,5.67
2018-04-17T19:52:52.209Z,2.40
2018-04-17T19:55:22.107Z,3.77
2018-04-17T19:57:51.599Z,3.17
2018-04-17T20:00:21.107Z,3.60
2018-04-17T20:02:50.620Z,5.83
2018-04-17T20:05:20.172Z,4.87
2018-04-17T20:07:49.671Z,3.63
2018-04-17T20:10:19.174Z,3.80
2018-04-17T20:12:48.692Z,4.50
2018-04-17T20:15:18.204Z,4.80
2018-04-17T20:17:47.711Z,3.03
2018-04-17T20:20:17.245Z,3.93
2018-04-17T20:22:46.739Z,3.30
2018-04-17T20:25:16.249Z,6.10
2018-04-17T20:27:45.762Z,4.20
2018-04-17T20:30:15.275Z,4.23
2018-04-17T20:32:45.451Z,2.97
2018-04-17T20:35:14.963Z,4.50
2018-04-17T20:37:44.457Z,2.90
2018-04-17T20:40:13.747Z,4.37
2018-04-17T20:42:43.255Z,5.87
2018-04-17T20:45:12.521Z,3.47
2018-04-17T20:47:42.013Z,2.93
2018-04-17T20:50:11.315Z,6.07
2018-04-17T20:52:40.597Z,7.23
2018-04-17T20:55:09.877Z,5.03
2018-04-17T20:57:39.150Z,5.73
2018-04-17T21:00:09.075Z,5.03
2018-04-17T21:02:38.575Z,8.83
2018-04-17T21:05:08.465Z,5.13
2018-04-17T21:07:37.994Z,4.10
2018-04-17T21:10:07.554Z,4.60
2018-04-17T21:12:36.821Z,3.40
2018-04-17T21:15:06.339Z,4.27
2018-04-17T21:17:35.832Z,3.33
2018-04-17T21:20:05.355Z,3.73
2018-04-17T21:22:34.623Z,4.30
2018-04-17T21:25:04.283Z,6.00
2018-04-17T21:27:33.795Z,6.13
2018-04-17T21:30:03.303Z,4.13
2018-04-17T21:32:32.803Z,5.63
2018-04-17T21:35:02.312Z,5.77
2018-04-17T21:37:31.825Z,6.53
2018-04-17T21:40:01.082Z,3.97
2018-04-17T21:42:30.583Z,3.17
2018-04-17T21:45:00.301Z,5.97
2018-04-17T21:47:29.811Z,4.00
2018-04-17T21:49:59.303Z,3.43
2018-04-17T21:52:28.795Z,3.53
2018-04-17T21:54:58.316Z,5.63
2018-04-17T21:57:27.847Z,4.80
2018-04-17T21:59:57.547Z,3.43
2018-04-17T22:02:27.071Z,5.20
2018-04-17T22:04:56.573Z,3.50
2018-04-17T22:07:26.069Z,4.27
2018-04-17T22:09:55.586Z,3.97
2018-04-17T22:12:25.118Z,4.30
2018-04-17T22:14:54.621Z,5.03
2018-04-17T22:17:24.136Z,4.87
2018-04-17T22:19:53.416Z,3.60
2018-04-17T22:22:22.685Z,3.07
2018-04-17T22:24:51.951Z,5.87
2018-04-17T22:27:21.877Z,9.23
2018-04-17T22:29:51.382Z,3.60
2018-04-17T22:32:20.569Z,6.07
2018-04-17T22:34:50.461Z,6.27
2018-04-17T22:37:19.745Z,7.03
2018-04-17T22:39:49.051Z,4.00
2018-04-17T22:42:18.333Z,3.57
2018-04-17T22:44:47.653Z,5.40
2018-04-17T22:47:16.963Z,5.07
2018-04-17T22:49:46.234Z,4.53
2018-04-17T22:52:15.517Z,5.33
2018-04-17T22:54:45.100Z,5.73
2018-04-17T22:57:14.813Z,4.67
2018-04-17T22:59:44.108Z,7.37
2018-04-17T23:02:14.030Z,3.47
2018-04-17T23:04:43.948Z,6.27
2018-04-17T23:07:13.834Z,4.37
2018-04-17T23:09:43.353Z,5.07
2018-04-17T23:12:13.570Z,5.83
2018-04-17T23:14:43.486Z,4.07
2018-04-17T23:17:13.221Z,3.37
2018-04-17T23:19:42.731Z,5.77
2018-04-17T23:22:12.124Z,4.80
2018-04-17T23:24:42.047Z,4.50
2018-04-17T23:27:11.559Z,5.77
2018-04-17T23:29:41.094Z,5.40
2018-04-17T23:32:10.630Z,3.97
2018-04-17T23:34:40.560Z,5.43
2018-04-17T23:37:10.496Z,4.23
2018-04-17T23:39:39.331Z,4.77
2018-04-17T23:42:08.845Z,4.70
2018-04-17T23:44:38.395Z,6.03
2018-04-17T23:47:08.340Z,5.63
2018-04-17T23:49:38.097Z,6.70
2018-04-17T23:52:07.713Z,4.90
2018-04-17T23:54:37.629Z,8.23
2018-04-17T23:57:07.573Z,6.37
2018-04-17T23:59:37.109Z,6.47
